sensor_id;sensor_type;location;lat;lon;timestamp;pressure;altitude;pressure_sealevel;temperature;humidity
81905;BME280;71370;-33.792;151.032;2023-07-16T00:00:22;102226.13;;;15.82;58.22
81905;BME280;71370;-33.792;151.032;2023-07-16T00:01:29;102229.12;;;15.83;58.13
81905;BME280;71370;-33.792;151.032;2023-07-16T00:02:39;102223.62;;;15.84;58.17
81905;BME280;71370;-33.792;151.032;2023-07-16T00:03:46;102223.27;;;15.84;58.16
81905;BME280;71370;-33.792;151.032;2023-07-16T00:04:53;102222.02;;;15.85;58.07
81905;BME280;71370;-33.792;151.032;2023-07-16T00:06:00;102222.71;;;15.85;57.94
81905;BME280;71370;-33.792;151.032;2023-07-16T00:07:07;102225.55;;;15.86;57.97
81905;BME280;71370;-33.792;151.032;2023-07-16T00:08:15;102224.98;;;15.87;57.88
81905;BME280;71370;-33.792;151.032;2023-07-16T00:09:22;102229.25;;;15.87;57.76
81905;BME280;71370;-33.792;151.032;2023-07-16T00:10:30;102230.66;;;15.88;57.66
81905;BME280;71370;-33.792;151.032;2023-07-16T00:11:39;102229.41;;;15.89;57.71
81905;BME280;71370;-33.792;151.032;2023-07-16T00:12:46;102235.26;;;15.89;57.64
81905;BME280;71370;-33.792;151.032;2023-07-16T00:13:54;102237.56;;;15.90;57.44
81905;BME280;71370;-33.792;151.032;2023-07-16T00:15:01;102238.77;;;15.92;57.42
81905;BME280;71370;-33.792;151.032;2023-07-16T00:16:08;102232.73;;;15.93;57.52
81905;BME280;71370;-33.792;151.032;2023-07-16T00:17:15;102236.61;;;15.96;57.48
81905;BME280;71370;-33.792;151.032;2023-07-16T00:18:23;102236.02;;;15.99;57.61
81905;BME280;71370;-33.792;151.032;2023-07-16T00:19:30;102238.67;;;16.01;57.57
81905;BME280;71370;-33.792;151.032;2023-07-16T00:20:37;102238.84;;;16.03;57.33
81905;BME280;71370;-33.792;151.032;2023-07-16T00:21:44;102242.88;;;16.07;57.25
81905;BME280;71370;-33.792;151.032;2023-07-16T00:22:51;102245.86;;;16.08;57.07
81905;BME280;71370;-33.792;151.032;2023-07-16T00:23:59;102243.34;;;16.10;56.51
81905;BME280;71370;-33.792;151.032;2023-07-16T00:25:07;102244.77;;;16.10;56.26
81905;BME280;71370;-33.792;151.032;2023-07-16T00:26:14;102250.09;;;16.11;55.87
81905;BME280;71370;-33.792;151.032;2023-07-16T00:27:21;102249.21;;;16.10;55.70
81905;BME280;71370;-33.792;151.032;2023-07-16T00:28:29;102245.66;;;16.10;55.59
81905;BME280;71370;-33.792;151.032;2023-07-16T00:29:36;102246.90;;;16.10;55.52
81905;BME280;71370;-33.792;151.032;2023-07-16T00:30:43;102247.26;;;16.10;55.36
81905;BME280;71370;-33.792;151.032;2023-07-16T00:31:50;102250.45;;;16.10;55.09
81905;BME280;71370;-33.792;151.032;2023-07-16T00:32:57;102250.82;;;16.09;54.96
81905;BME280;71370;-33.792;151.032;2023-07-16T00:34:05;102250.30;;;16.07;54.97
81905;BME280;71370;-33.792;151.032;2023-07-16T00:35:13;102251.20;;;16.07;54.83
81905;BME280;71370;-33.792;151.032;2023-07-16T00:36:20;102248.56;;;16.05;54.84
81905;BME280;71370;-33.792;151.032;2023-07-16T00:37:27;102247.51;;;16.04;54.68
81905;BME280;71370;-33.792;151.032;2023-07-16T00:38:35;102245.59;;;16.01;54.52
81905;BME280;71370;-33.792;151.032;2023-07-16T00:39:42;102243.66;;;16.00;54.59
81905;BME280;71370;-33.792;151.032;2023-07-16T00:40:49;102247.23;;;15.98;54.51
81905;BME280;71370;-33.792;151.032;2023-07-16T00:41:56;102240.49;;;15.97;54.61
81905;BME280;71370;-33.792;151.032;2023-07-16T00:43:04;102246.02;;;15.95;54.67
81905;BME280;71370;-33.792;151.032;2023-07-16T00:44:11;102243.20;;;15.93;54.60
81905;BME280;71370;-33.792;151.032;2023-07-16T00:45:17;102246.60;;;15.90;54.76
81905;BME280;71370;-33.792;151.032;2023-07-16T00:46:25;102241.48;;;15.88;54.91
81905;BME280;71370;-33.792;151.032;2023-07-16T00:47:32;102242.20;;;15.87;55.04
81905;BME280;71370;-33.792;151.032;2023-07-16T00:48:40;102242.75;;;15.86;54.85
81905;BME280;71370;-33.792;151.032;2023-07-16T00:49:48;102247.89;;;15.86;54.93
81905;BME280;71370;-33.792;151.032;2023-07-16T00:50:56;102243.46;;;15.86;54.97
81905;BME280;71370;-33.792;151.032;2023-07-16T00:52:04;102243.10;;;15.86;54.81
81905;BME280;71370;-33.792;151.032;2023-07-16T00:53:12;102238.34;;;15.84;55.01
81905;BME280;71370;-33.792;151.032;2023-07-16T00:54:20;102238.35;;;15.83;54.99
81905;BME280;71370;-33.792;151.032;2023-07-16T00:55:29;102235.52;;;15.82;55.09
81905;BME280;71370;-33.792;151.032;2023-07-16T00:56:37;102234.80;;;15.83;55.18
81905;BME280;71370;-33.792;151.032;2023-07-16T00:57:45;102234.06;;;15.85;55.20
81905;BME280;71370;-33.792;151.032;2023-07-16T00:58:53;102229.26;;;15.87;55.23
81905;BME280;71370;-33.792;151.032;2023-07-16T01:00:00;102228.34;;;15.89;55.02
81905;BME280;71370;-33.792;151.032;2023-07-16T01:01:07;102225.99;;;15.92;55.12
81905;BME280;71370;-33.792;151.032;2023-07-16T01:02:15;102224.37;;;15.95;55.08
81905;BME280;71370;-33.792;151.032;2023-07-16T01:03:22;102222.57;;;15.98;54.96
81905;BME280;71370;-33.792;151.032;2023-07-16T01:04:29;102223.95;;;16.01;54.82
81905;BME280;71370;-33.792;151.032;2023-07-16T01:06:51;102216.43;;;16.05;54.75
81905;BME280;71370;-33.792;151.032;2023-07-16T01:08:03;102211.07;;;16.09;54.78
81905;BME280;71370;-33.792;151.032;2023-07-16T01:09:18;102210.67;;;16.12;54.71
81905;BME280;71370;-33.792;151.032;2023-07-16T01:10:26;102207.45;;;16.15;54.64
81905;BME280;71370;-33.792;151.032;2023-07-16T01:11:35;102207.75;;;16.19;54.56
81905;BME280;71370;-33.792;151.032;2023-07-16T01:12:43;102213.55;;;16.22;54.74
81905;BME280;71370;-33.792;151.032;2023-07-16T01:13:51;102212.48;;;16.24;54.86
81905;BME280;71370;-33.792;151.032;2023-07-16T01:14:59;102217.61;;;16.25;54.56
81905;BME280;71370;-33.792;151.032;2023-07-16T01:16:06;102216.73;;;16.24;54.58
81905;BME280;71370;-33.792;151.032;2023-07-16T01:17:25;102217.10;;;16.23;54.60
81905;BME280;71370;-33.792;151.032;2023-07-16T01:18:32;102215.69;;;16.22;54.58
81905;BME280;71370;-33.792;151.032;2023-07-16T01:19:39;102217.29;;;16.22;54.57
81905;BME280;71370;-33.792;151.032;2023-07-16T01:20:46;102214.94;;;16.24;54.53
81905;BME280;71370;-33.792;151.032;2023-07-16T01:25:44;102203.10;;;16.34;54.64
81905;BME280;71370;-33.792;151.032;2023-07-16T01:28:52;102199.83;;;16.40;54.91
81905;BME280;71370;-33.792;151.032;2023-07-16T01:30:05;102198.16;;;16.45;54.75
81905;BME280;71370;-33.792;151.032;2023-07-16T01:31:17;102200.42;;;16.48;54.71
81905;BME280;71370;-33.792;151.032;2023-07-16T01:32:25;102197.70;;;16.52;54.93
81905;BME280;71370;-33.792;151.032;2023-07-16T01:33:32;102190.36;;;16.55;54.73
81905;BME280;71370;-33.792;151.032;2023-07-16T01:34:40;102188.55;;;16.58;54.50
81905;BME280;71370;-33.792;151.032;2023-07-16T01:35:49;102191.70;;;16.61;54.65
81905;BME280;71370;-33.792;151.032;2023-07-16T01:36:57;102185.09;;;16.63;54.57
81905;BME280;71370;-33.792;151.032;2023-07-16T01:38:04;102181.52;;;16.65;54.73
81905;BME280;71370;-33.792;151.032;2023-07-16T01:39:12;102176.69;;;16.67;54.54
81905;BME280;71370;-33.792;151.032;2023-07-16T01:40:19;102174.89;;;16.69;54.45
81905;BME280;71370;-33.792;151.032;2023-07-16T01:41:26;102177.50;;;16.71;54.66
81905;BME280;71370;-33.792;151.032;2023-07-16T01:42:33;102170.42;;;16.70;54.56
81905;BME280;71370;-33.792;151.032;2023-07-16T01:43:41;102170.95;;;16.70;54.50
81905;BME280;71370;-33.792;151.032;2023-07-16T01:44:48;102161.55;;;16.70;54.37
81905;BME280;71370;-33.792;151.032;2023-07-16T01:45:56;102162.06;;;16.70;54.44
81905;BME280;71370;-33.792;151.032;2023-07-16T01:47:12;102159.56;;;16.72;54.57
81905;BME280;71370;-33.792;151.032;2023-07-16T01:48:34;102154.58;;;16.72;54.86
81905;BME280;71370;-33.792;151.032;2023-07-16T01:49:42;102154.94;;;16.72;54.70
81905;BME280;71370;-33.792;151.032;2023-07-16T01:50:49;102154.56;;;16.73;54.78
81905;BME280;71370;-33.792;151.032;2023-07-16T01:51:56;102151.70;;;16.74;54.68
81905;BME280;71370;-33.792;151.032;2023-07-16T01:53:03;102149.55;;;16.76;54.58
81905;BME280;71370;-33.792;151.032;2023-07-16T01:54:10;102147.58;;;16.77;54.54
81905;BME280;71370;-33.792;151.032;2023-07-16T01:55:17;102147.38;;;16.78;54.72
81905;BME280;71370;-33.792;151.032;2023-07-16T01:56:25;102146.11;;;16.80;54.69
81905;BME280;71370;-33.792;151.032;2023-07-16T01:57:32;102142.02;;;16.81;54.66
81905;BME280;71370;-33.792;151.032;2023-07-16T01:58:39;102143.60;;;16.82;54.69
81905;BME280;71370;-33.792;151.032;2023-07-16T01:59:46;102143.79;;;16.83;54.74
81905;BME280;71370;-33.792;151.032;2023-07-16T02:00:53;102144.81;;;16.84;54.54
81905;BME280;71370;-33.792;151.032;2023-07-16T02:02:00;102141.80;;;16.85;54.69
81905;BME280;71370;-33.792;151.032;2023-07-16T02:03:07;102142.31;;;16.85;54.64
81905;BME280;71370;-33.792;151.032;2023-07-16T02:04:14;102141.07;;;16.86;54.84
81905;BME280;71370;-33.792;151.032;2023-07-16T02:05:21;102139.97;;;16.87;54.61
81905;BME280;71370;-33.792;151.032;2023-07-16T02:06:28;102143.00;;;16.87;54.71
81905;BME280;71370;-33.792;151.032;2023-07-16T02:07:35;102145.30;;;16.87;54.83
81905;BME280;71370;-33.792;151.032;2023-07-16T02:08:42;102143.88;;;16.88;54.72
81905;BME280;71370;-33.792;151.032;2023-07-16T02:09:49;102146.87;;;16.89;54.94
81905;BME280;71370;-33.792;151.032;2023-07-16T02:10:56;102147.02;;;16.91;54.88
81905;BME280;71370;-33.792;151.032;2023-07-16T02:12:04;102148.61;;;16.91;54.94
81905;BME280;71370;-33.792;151.032;2023-07-16T02:13:11;102148.58;;;16.93;54.82
81905;BME280;71370;-33.792;151.032;2023-07-16T02:14:18;102147.68;;;16.93;54.99
81905;BME280;71370;-33.792;151.032;2023-07-16T02:15:25;102146.77;;;16.95;54.83
81905;BME280;71370;-33.792;151.032;2023-07-16T02:16:32;102145.31;;;16.97;54.84
81905;BME280;71370;-33.792;151.032;2023-07-16T02:17:39;102144.39;;;16.99;54.90
81905;BME280;71370;-33.792;151.032;2023-07-16T02:18:46;102144.00;;;17.00;54.98
81905;BME280;71370;-33.792;151.032;2023-07-16T02:19:53;102144.88;;;17.01;55.09
81905;BME280;71370;-33.792;151.032;2023-07-16T02:21:00;102143.09;;;17.02;54.98
81905;BME280;71370;-33.792;151.032;2023-07-16T02:22:08;102144.13;;;17.04;54.80
81905;BME280;71370;-33.792;151.032;2023-07-16T02:23:15;102142.14;;;17.05;54.90
81905;BME280;71370;-33.792;151.032;2023-07-16T02:24:22;102139.80;;;17.08;55.23
81905;BME280;71370;-33.792;151.032;2023-07-16T02:25:29;102138.13;;;17.11;54.92
81905;BME280;71370;-33.792;151.032;2023-07-16T02:26:36;102137.00;;;17.14;54.93
81905;BME280;71370;-33.792;151.032;2023-07-16T02:27:43;102139.96;;;17.18;54.87
81905;BME280;71370;-33.792;151.032;2023-07-16T02:28:51;102133.36;;;17.20;54.82
81905;BME280;71370;-33.792;151.032;2023-07-16T02:29:58;102135.61;;;17.23;54.72
81905;BME280;71370;-33.792;151.032;2023-07-16T02:31:05;102138.05;;;17.25;54.65
81905;BME280;71370;-33.792;151.032;2023-07-16T02:32:12;102137.12;;;17.27;54.72
81905;BME280;71370;-33.792;151.032;2023-07-16T02:33:19;102134.59;;;17.29;54.67
81905;BME280;71370;-33.792;151.032;2023-07-16T02:34:26;102136.30;;;17.32;54.52
81905;BME280;71370;-33.792;151.032;2023-07-16T02:35:33;102138.02;;;17.36;54.84
81905;BME280;71370;-33.792;151.032;2023-07-16T02:36:40;102140.85;;;17.37;54.61
81905;BME280;71370;-33.792;151.032;2023-07-16T02:37:47;102140.98;;;17.39;54.52
81905;BME280;71370;-33.792;151.032;2023-07-16T02:38:54;102142.55;;;17.40;54.51
81905;BME280;71370;-33.792;151.032;2023-07-16T02:40:02;102141.84;;;17.40;54.49
81905;BME280;71370;-33.792;151.032;2023-07-16T02:41:09;102144.15;;;17.40;54.67
81905;BME280;71370;-33.792;151.032;2023-07-16T02:42:16;102142.55;;;17.40;54.61
81905;BME280;71370;-33.792;151.032;2023-07-16T02:43:23;102146.13;;;17.40;54.40
81905;BME280;71370;-33.792;151.032;2023-07-16T02:44:30;102144.54;;;17.39;54.38
81905;BME280;71370;-33.792;151.032;2023-07-16T02:45:37;102146.14;;;17.39;54.44
81905;BME280;71370;-33.792;151.032;2023-07-16T02:46:44;102143.88;;;17.36;54.52
81905;BME280;71370;-33.792;151.032;2023-07-16T02:47:51;102142.65;;;17.35;54.72
81905;BME280;71370;-33.792;151.032;2023-07-16T02:48:58;102144.11;;;17.33;54.81
81905;BME280;71370;-33.792;151.032;2023-07-16T02:50:06;102143.97;;;17.31;54.69
81905;BME280;71370;-33.792;151.032;2023-07-16T02:51:13;102145.96;;;17.29;54.61
81905;BME280;71370;-33.792;151.032;2023-07-16T02:52:20;102142.94;;;17.29;54.94
81905;BME280;71370;-33.792;151.032;2023-07-16T02:53:27;102142.41;;;17.29;54.90
81905;BME280;71370;-33.792;151.032;2023-07-16T02:54:37;102139.07;;;17.28;55.22
81905;BME280;71370;-33.792;151.032;2023-07-16T02:55:45;102144.05;;;17.28;55.00
81905;BME280;71370;-33.792;151.032;2023-07-16T02:56:53;102144.40;;;17.27;54.98
81905;BME280;71370;-33.792;151.032;2023-07-16T02:58:00;102139.98;;;17.26;54.95
81905;BME280;71370;-33.792;151.032;2023-07-16T02:59:10;102140.16;;;17.26;55.19
81905;BME280;71370;-33.792;151.032;2023-07-16T03:00:18;102144.77;;;17.27;54.98
81905;BME280;71370;-33.792;151.032;2023-07-16T03:01:25;102142.61;;;17.28;55.16
81905;BME280;71370;-33.792;151.032;2023-07-16T03:02:32;102144.01;;;17.29;55.09
81905;BME280;71370;-33.792;151.032;2023-07-16T03:03:39;102139.58;;;17.29;54.98
81905;BME280;71370;-33.792;151.032;2023-07-16T03:04:46;102140.11;;;17.29;55.19
81905;BME280;71370;-33.792;151.032;2023-07-16T03:05:53;102141.56;;;17.27;55.16
81905;BME280;71370;-33.792;151.032;2023-07-16T03:07:00;102139.43;;;17.26;55.27
81905;BME280;71370;-33.792;151.032;2023-07-16T03:08:07;102137.85;;;17.26;55.45
81905;BME280;71370;-33.792;151.032;2023-07-16T03:09:14;102140.70;;;17.25;55.31
81905;BME280;71370;-33.792;151.032;2023-07-16T03:10:22;102137.71;;;17.24;55.48
81905;BME280;71370;-33.792;151.032;2023-07-16T03:11:29;102136.68;;;17.22;55.43
81905;BME280;71370;-33.792;151.032;2023-07-16T03:12:36;102137.20;;;17.22;55.30
81905;BME280;71370;-33.792;151.032;2023-07-16T03:13:43;102133.13;;;17.22;55.57
81905;BME280;71370;-33.792;151.032;2023-07-16T03:14:50;102133.48;;;17.23;55.71
81905;BME280;71370;-33.792;151.032;2023-07-16T03:16:00;102130.12;;;17.22;55.69
81905;BME280;71370;-33.792;151.032;2023-07-16T03:17:07;102130.85;;;17.21;55.97
81905;BME280;71370;-33.792;151.032;2023-07-16T03:18:15;102126.97;;;17.19;55.86
81905;BME280;71370;-33.792;151.032;2023-07-16T03:19:23;102132.67;;;17.18;55.90
81905;BME280;71370;-33.792;151.032;2023-07-16T03:20:30;102131.65;;;17.16;55.98
81905;BME280;71370;-33.792;151.032;2023-07-16T03:21:37;102134.88;;;17.14;55.75
81905;BME280;71370;-33.792;151.032;2023-07-16T03:22:44;102137.17;;;17.15;56.03
81905;BME280;71370;-33.792;151.032;2023-07-16T03:23:51;102132.93;;;17.13;56.01
81905;BME280;71370;-33.792;151.032;2023-07-16T03:24:58;102133.11;;;17.14;55.89
81905;BME280;71370;-33.792;151.032;2023-07-16T03:26:05;102130.80;;;17.13;56.06
81905;BME280;71370;-33.792;151.032;2023-07-16T03:27:13;102130.98;;;17.13;56.03
81905;BME280;71370;-33.792;151.032;2023-07-16T03:28:20;102128.13;;;17.13;55.97
81905;BME280;71370;-33.792;151.032;2023-07-16T03:29:27;102120.15;;;17.13;55.90
81905;BME280;71370;-33.792;151.032;2023-07-16T03:30:34;102120.84;;;17.13;56.03
81905;BME280;71370;-33.792;151.032;2023-07-16T03:31:41;102122.44;;;17.14;56.19
81905;BME280;71370;-33.792;151.032;2023-07-16T03:32:48;102118.17;;;17.14;56.37
81905;BME280;71370;-33.792;151.032;2023-07-16T03:33:55;102119.05;;;17.14;56.29
81905;BME280;71370;-33.792;151.032;2023-07-16T03:35:02;102113.39;;;17.12;55.77
81905;BME280;71370;-33.792;151.032;2023-07-16T03:36:09;102113.61;;;17.11;55.74
81905;BME280;71370;-33.792;151.032;2023-07-16T03:37:16;102112.39;;;17.09;56.02
81905;BME280;71370;-33.792;151.032;2023-07-16T03:38:23;102110.27;;;17.08;56.00
81905;BME280;71370;-33.792;151.032;2023-07-16T03:39:30;102108.19;;;17.06;55.68
81905;BME280;71370;-33.792;151.032;2023-07-16T03:40:38;102109.45;;;17.04;56.04
81905;BME280;71370;-33.792;151.032;2023-07-16T03:41:45;102109.67;;;17.03;56.39
81905;BME280;71370;-33.792;151.032;2023-07-16T03:42:52;102111.52;;;16.99;57.00
81905;BME280;71370;-33.792;151.032;2023-07-16T03:44:00;102116.39;;;16.95;57.43
81905;BME280;71370;-33.792;151.032;2023-07-16T03:45:09;102115.20;;;16.92;57.85
81905;BME280;71370;-33.792;151.032;2023-07-16T03:46:16;102113.68;;;16.87;57.80
81905;BME280;71370;-33.792;151.032;2023-07-16T03:47:23;102118.17;;;16.84;58.04
81905;BME280;71370;-33.792;151.032;2023-07-16T03:48:30;102117.50;;;16.81;58.08
81905;BME280;71370;-33.792;151.032;2023-07-16T03:49:37;102120.19;;;16.78;58.11
81905;BME280;71370;-33.792;151.032;2023-07-16T03:50:44;102115.23;;;16.78;58.28
81905;BME280;71370;-33.792;151.032;2023-07-16T03:51:53;102120.58;;;16.77;58.66
81905;BME280;71370;-33.792;151.032;2023-07-16T03:53:00;102120.07;;;16.75;58.66
81905;BME280;71370;-33.792;151.032;2023-07-16T03:54:07;102121.15;;;16.75;58.55
81905;BME280;71370;-33.792;151.032;2023-07-16T03:55:14;102116.70;;;16.75;59.08
81905;BME280;71370;-33.792;151.032;2023-07-16T03:56:21;102121.46;;;16.77;59.59
81905;BME280;71370;-33.792;151.032;2023-07-16T03:57:29;102121.67;;;16.75;59.81
81905;BME280;71370;-33.792;151.032;2023-07-16T03:58:36;102123.47;;;16.74;60.44
81905;BME280;71370;-33.792;151.032;2023-07-16T03:59:43;102121.88;;;16.73;60.74
81905;BME280;71370;-33.792;151.032;2023-07-16T04:00:51;102121.90;;;16.72;61.18
81905;BME280;71370;-33.792;151.032;2023-07-16T04:01:58;102118.23;;;16.69;61.34
81905;BME280;71370;-33.792;151.032;2023-07-16T04:03:05;102120.02;;;16.68;61.25
81905;BME280;71370;-33.792;151.032;2023-07-16T04:04:12;102121.42;;;16.69;61.52
81905;BME280;71370;-33.792;151.032;2023-07-16T04:05:19;102123.17;;;16.70;61.89
81905;BME280;71370;-33.792;151.032;2023-07-16T04:06:26;102128.48;;;16.71;61.95
81905;BME280;71370;-33.792;151.032;2023-07-16T04:07:34;102128.98;;;16.73;61.87
81905;BME280;71370;-33.792;151.032;2023-07-16T04:08:41;102131.48;;;16.72;61.93
81905;BME280;71370;-33.792;151.032;2023-07-16T04:09:48;102135.94;;;16.71;62.28
81905;BME280;71370;-33.792;151.032;2023-07-16T04:10:55;102132.27;;;16.69;62.56
81905;BME280;71370;-33.792;151.032;2023-07-16T04:12:02;102133.17;;;16.67;62.56
81905;BME280;71370;-33.792;151.032;2023-07-16T04:13:09;102130.38;;;16.64;62.80
81905;BME280;71370;-33.792;151.032;2023-07-16T04:14:17;102126.88;;;16.61;62.32
81905;BME280;71370;-33.792;151.032;2023-07-16T04:15:24;102129.06;;;16.58;61.95
81905;BME280;71370;-33.792;151.032;2023-07-16T04:16:31;102127.33;;;16.55;61.99
81905;BME280;71370;-33.792;151.032;2023-07-16T04:17:38;102121.46;;;16.55;62.17
81905;BME280;71370;-33.792;151.032;2023-07-16T04:18:45;102122.55;;;16.54;62.38
81905;BME280;71370;-33.792;151.032;2023-07-16T04:19:52;102119.38;;;16.53;62.34
81905;BME280;71370;-33.792;151.032;2023-07-16T04:20:59;102123.30;;;16.51;62.37
81905;BME280;71370;-33.792;151.032;2023-07-16T04:22:07;102124.90;;;16.51;62.57
81905;BME280;71370;-33.792;151.032;2023-07-16T04:23:14;102124.56;;;16.50;62.71
81905;BME280;71370;-33.792;151.032;2023-07-16T04:24:21;102131.31;;;16.51;62.79
81905;BME280;71370;-33.792;151.032;2023-07-16T04:25:28;102134.33;;;16.51;62.92
81905;BME280;71370;-33.792;151.032;2023-07-16T04:26:35;102132.89;;;16.52;63.15
81905;BME280;71370;-33.792;151.032;2023-07-16T04:27:42;102134.81;;;16.54;63.61
81905;BME280;71370;-33.792;151.032;2023-07-16T04:28:49;102132.84;;;16.55;63.74
81905;BME280;71370;-33.792;151.032;2023-07-16T04:29:56;102133.50;;;16.58;63.88
81905;BME280;71370;-33.792;151.032;2023-07-16T04:31:03;102137.17;;;16.61;64.02
81905;BME280;71370;-33.792;151.032;2023-07-16T04:32:10;102134.30;;;16.64;64.33
81905;BME280;71370;-33.792;151.032;2023-07-16T04:33:17;102136.20;;;16.67;64.70
81905;BME280;71370;-33.792;151.032;2023-07-16T04:34:25;102134.39;;;16.69;64.65
81905;BME280;71370;-33.792;151.032;2023-07-16T04:35:32;102137.91;;;16.71;64.34
81905;BME280;71370;-33.792;151.032;2023-07-16T04:36:41;102140.72;;;16.72;64.22
81905;BME280;71370;-33.792;151.032;2023-07-16T04:37:48;102138.39;;;16.73;64.10
81905;BME280;71370;-33.792;151.032;2023-07-16T04:38:55;102136.59;;;16.75;64.19
81905;BME280;71370;-33.792;151.032;2023-07-16T04:40:02;102141.73;;;16.76;63.97
81905;BME280;71370;-33.792;151.032;2023-07-16T04:41:10;102140.13;;;16.76;64.01
81905;BME280;71370;-33.792;151.032;2023-07-16T04:42:19;102144.79;;;16.74;63.87
81905;BME280;71370;-33.792;151.032;2023-07-16T04:43:27;102143.00;;;16.74;63.76
81905;BME280;71370;-33.792;151.032;2023-07-16T04:44:34;102141.06;;;16.73;63.77
81905;BME280;71370;-33.792;151.032;2023-07-16T04:45:42;102143.20;;;16.72;64.16
81905;BME280;71370;-33.792;151.032;2023-07-16T04:46:52;102135.21;;;16.72;64.20
81905;BME280;71370;-33.792;151.032;2023-07-16T04:48:00;102137.34;;;16.72;64.13
81905;BME280;71370;-33.792;151.032;2023-07-16T04:49:07;102135.23;;;16.72;63.60
81905;BME280;71370;-33.792;151.032;2023-07-16T04:50:14;102133.63;;;16.71;63.90
81905;BME280;71370;-33.792;151.032;2023-07-16T04:51:21;102132.00;;;16.73;63.88
81905;BME280;71370;-33.792;151.032;2023-07-16T04:52:28;102128.96;;;16.74;63.93
81905;BME280;71370;-33.792;151.032;2023-07-16T04:53:35;102128.96;;;16.75;64.09
81905;BME280;71370;-33.792;151.032;2023-07-16T04:54:42;102130.18;;;16.76;64.45
81905;BME280;71370;-33.792;151.032;2023-07-16T04:55:49;102130.89;;;16.77;64.40
81905;BME280;71370;-33.792;151.032;2023-07-16T04:56:56;102130.14;;;16.78;64.10
81905;BME280;71370;-33.792;151.032;2023-07-16T04:58:04;102129.06;;;16.79;64.38
81905;BME280;71370;-33.792;151.032;2023-07-16T04:59:11;102129.98;;;16.78;63.77
81905;BME280;71370;-33.792;151.032;2023-07-16T05:00:18;102127.18;;;16.75;63.84
81905;BME280;71370;-33.792;151.032;2023-07-16T05:01:25;102129.70;;;16.73;63.74
81905;BME280;71370;-33.792;151.032;2023-07-16T05:02:33;102129.73;;;16.70;63.82
81905;BME280;71370;-33.792;151.032;2023-07-16T05:03:40;102129.75;;;16.69;64.10
81905;BME280;71370;-33.792;151.032;2023-07-16T05:04:48;102124.65;;;16.67;63.74
81905;BME280;71370;-33.792;151.032;2023-07-16T05:05:55;102126.64;;;16.65;63.69
81905;BME280;71370;-33.792;151.032;2023-07-16T05:07:03;102131.45;;;16.64;63.92
81905;BME280;71370;-33.792;151.032;2023-07-16T05:08:10;102133.42;;;16.63;64.03
81905;BME280;71370;-33.792;151.032;2023-07-16T05:09:17;102132.02;;;16.61;63.99
81905;BME280;71370;-33.792;151.032;2023-07-16T05:10:26;102132.77;;;16.59;63.85
81905;BME280;71370;-33.792;151.032;2023-07-16T05:11:33;102135.64;;;16.57;63.93
81905;BME280;71370;-33.792;151.032;2023-07-16T05:12:40;102132.48;;;16.54;64.00
81905;BME280;71370;-33.792;151.032;2023-07-16T05:13:48;102137.85;;;16.53;63.94
81905;BME280;71370;-33.792;151.032;2023-07-16T05:14:55;102136.45;;;16.51;64.03
81905;BME280;71370;-33.792;151.032;2023-07-16T05:16:02;102138.25;;;16.50;63.84
81905;BME280;71370;-33.792;151.032;2023-07-16T05:17:09;102141.81;;;16.49;64.01
81905;BME280;71370;-33.792;151.032;2023-07-16T05:18:16;102142.52;;;16.48;64.07
81905;BME280;71370;-33.792;151.032;2023-07-16T05:19:23;102142.90;;;16.47;64.36
81905;BME280;71370;-33.792;151.032;2023-07-16T05:20:30;102146.29;;;16.47;64.30
81905;BME280;71370;-33.792;151.032;2023-07-16T05:21:38;102148.42;;;16.46;64.11
81905;BME280;71370;-33.792;151.032;2023-07-16T05:22:45;102152.70;;;16.45;64.16
81905;BME280;71370;-33.792;151.032;2023-07-16T05:23:52;102153.41;;;16.45;64.08
81905;BME280;71370;-33.792;151.032;2023-07-16T05:24:59;102156.77;;;16.46;64.26
81905;BME280;71370;-33.792;151.032;2023-07-16T05:26:06;102157.48;;;16.46;64.56
81905;BME280;71370;-33.792;151.032;2023-07-16T05:27:13;102160.29;;;16.48;64.58
81905;BME280;71370;-33.792;151.032;2023-07-16T05:28:20;102158.52;;;16.48;64.70
81905;BME280;71370;-33.792;151.032;2023-07-16T05:29:27;102159.04;;;16.48;64.70
81905;BME280;71370;-33.792;151.032;2023-07-16T05:30:34;102163.84;;;16.47;64.50
81905;BME280;71370;-33.792;151.032;2023-07-16T05:31:42;102166.70;;;16.47;64.61
81905;BME280;71370;-33.792;151.032;2023-07-16T05:32:50;102170.63;;;16.46;64.66
81905;BME280;71370;-33.792;151.032;2023-07-16T05:33:57;102172.23;;;16.44;64.77
81905;BME280;71370;-33.792;151.032;2023-07-16T05:35:05;102175.27;;;16.43;64.90
81905;BME280;71370;-33.792;151.032;2023-07-16T05:36:12;102174.38;;;16.44;64.95
81905;BME280;71370;-33.792;151.032;2023-07-16T05:37:19;102174.75;;;16.43;64.82
81905;BME280;71370;-33.792;151.032;2023-07-16T05:38:26;102175.48;;;16.42;64.91
81905;BME280;71370;-33.792;151.032;2023-07-16T05:39:33;102175.51;;;16.40;64.80
81905;BME280;71370;-33.792;151.032;2023-07-16T05:40:40;102174.63;;;16.39;64.78
81905;BME280;71370;-33.792;151.032;2023-07-16T05:41:47;102173.23;;;16.38;64.42
81905;BME280;71370;-33.792;151.032;2023-07-16T05:42:55;102179.27;;;16.37;64.33
81905;BME280;71370;-33.792;151.032;2023-07-16T05:44:02;102177.68;;;16.37;64.41
81905;BME280;71370;-33.792;151.032;2023-07-16T05:45:09;102183.36;;;16.37;64.38
81905;BME280;71370;-33.792;151.032;2023-07-16T05:46:16;102183.53;;;16.37;64.38